createdAt,value
2022-10-01T00:00:54.595Z,100854.34
2022-10-01T00:03:23.133Z,100857.66
2022-10-01T00:06:11.450Z,100850.66
2022-10-01T00:08:40.402Z,100851.63
2022-10-01T00:11:12.449Z,100847.25
2022-10-01T00:13:40.315Z,100860.59
2022-10-01T00:16:09.217Z,100855.53
2022-10-01T00:18:37.913Z,100857.06
2022-10-01T00:21:09.720Z,100853.50
2022-10-01T00:23:37.059Z,100844.00
2022-10-01T00:26:17.044Z,100854.69
2022-10-01T00:28:46.235Z,100858.97
2022-10-01T00:31:15.014Z,100857.16
2022-10-01T00:33:42.635Z,100856.22
2022-10-01T00:36:11.082Z,100853.66
2022-10-01T00:38:40.817Z,100857.03
2022-10-01T00:41:08.820Z,100843.38
2022-10-01T00:43:40.140Z,100849.13
2022-10-01T00:46:19.347Z,100838.28
2022-10-01T00:49:01.282Z,100854.13
2022-10-01T00:51:35.273Z,100864.88
2022-10-01T00:54:08.443Z,100884.81
2022-10-01T00:56:36.086Z,100905.84
2022-10-01T00:59:03.217Z,100918.31
2022-10-01T01:01:30.872Z,100919.72
2022-10-01T01:03:57.902Z,100924.28
2022-10-01T01:06:24.882Z,100936.34
2022-10-01T01:08:55.262Z,100937.31
2022-10-01T01:11:40.082Z,100952.19
2022-10-01T01:14:57.930Z,100962.91
2022-10-01T01:17:42.012Z,100970.75
2022-10-01T01:20:26.909Z,100981.97
2022-10-01T01:23:06.232Z,100979.53
2022-10-01T01:25:47.765Z,100980.13
2022-10-01T01:28:38.867Z,100989.69
2022-10-01T01:31:12.275Z,100977.44
2022-10-01T01:33:43.780Z,100966.00
2022-10-01T01:36:18.734Z,100977.50
2022-10-01T01:38:54.809Z,100971.06
2022-10-01T01:41:26.821Z,100970.09
2022-10-01T01:43:56.521Z,100958.50
2022-10-01T01:46:33.863Z,100952.38
2022-10-01T01:49:04.387Z,100947.91
2022-10-01T01:51:36.747Z,100927.06
2022-10-01T01:54:03.796Z,100940.63
2022-10-01T01:56:31.337Z,100924.19
2022-10-01T01:59:01.049Z,100911.75
2022-10-01T02:01:39.571Z,100906.19
2022-10-01T02:04:24.534Z,100900.22
2022-10-01T02:07:13.128Z,100885.84
2022-10-01T02:10:04.554Z,100871.84
2022-10-01T02:12:50.041Z,100869.56
2022-10-01T02:15:37.260Z,100863.13
2022-10-01T02:18:16.571Z,100851.31
2022-10-01T02:20:53.537Z,100849.38
2022-10-01T02:23:28.466Z,100841.94
2022-10-01T02:26:02.674Z,100835.94
2022-10-01T02:28:32.860Z,100825.47
2022-10-01T02:31:01.971Z,100807.31
2022-10-01T02:33:33.452Z,100806.31
2022-10-01T02:36:04.006Z,100808.56
2022-10-01T02:38:35.550Z,100817.19
2022-10-01T02:41:07.498Z,100822.53
2022-10-01T02:43:42.764Z,100831.28
2022-10-01T02:46:45.929Z,100836.34
2022-10-01T02:49:13.394Z,100813.97
2022-10-01T02:52:05.292Z,100810.25
2022-10-01T02:54:40.325Z,100826.19
2022-10-01T02:57:27.340Z,100810.69
2022-10-01T03:00:00.032Z,100829.13
2022-10-01T03:02:32.967Z,100831.81
2022-10-01T03:05:00.480Z,100834.72
2022-10-01T03:07:30.237Z,100845.88
2022-10-01T03:09:57.079Z,100850.16
2022-10-01T03:12:24.354Z,100859.75
2022-10-01T03:14:51.386Z,100859.59
2022-10-01T03:17:18.262Z,100868.34
2022-10-01T03:19:45.165Z,100880.41
2022-10-01T03:22:15.046Z,100871.13
2022-10-01T03:24:41.813Z,100877.69
2022-10-01T03:27:08.568Z,100868.25
2022-10-01T03:29:35.411Z,100873.28
2022-10-01T03:32:02.191Z,100875.97
2022-10-01T03:34:28.987Z,100869.81
2022-10-01T03:36:55.730Z,100872.47
2022-10-01T03:39:22.471Z,100877.47
2022-10-01T03:41:49.841Z,100860.28
2022-10-01T03:44:16.590Z,100864.16
2022-10-01T03:46:43.912Z,100863.97
2022-10-01T03:49:10.874Z,100861.38
2022-10-01T03:51:38.093Z,100862.19
2022-10-01T03:54:06.823Z,100855.94
2022-10-01T03:56:35.043Z,100854.19
2022-10-01T03:59:01.964Z,100860.00
2022-10-01T04:01:28.843Z,100844.97
2022-10-01T04:03:55.648Z,100844.72
2022-10-01T04:06:22.508Z,100836.34
2022-10-01T04:08:49.229Z,100831.28
2022-10-01T04:11:16.350Z,100828.31
2022-10-01T04:13:43.103Z,100834.09
2022-10-01T04:16:11.229Z,100816.47
2022-10-01T04:18:38.041Z,100815.88
2022-10-01T04:21:05.440Z,100820.84
2022-10-01T04:23:32.219Z,100808.59
2022-10-01T04:26:01.009Z,100810.41
2022-10-01T04:28:28.652Z,100803.16
2022-10-01T04:31:14.023Z,100797.84
2022-10-01T04:33:41.361Z,100805.09
2022-10-01T04:36:08.475Z,100801.53
2022-10-01T04:38:35.254Z,100810.25
2022-10-01T04:41:01.975Z,100799.56
2022-10-01T04:43:28.817Z,100803.06
2022-10-01T04:45:55.540Z,100802.91
2022-10-01T04:48:22.320Z,100795.75
2022-10-01T04:50:49.118Z,100793.00
2022-10-01T04:53:15.882Z,100793.28
2022-10-01T04:55:43.764Z,100792.31
2022-10-01T04:58:10.596Z,100801.78
2022-10-01T05:00:37.410Z,100792.00
2022-10-01T05:03:04.210Z,100798.06
2022-10-01T05:05:33.071Z,100788.53
2022-10-01T05:07:59.845Z,100780.53
2022-10-01T05:10:27.597Z,100787.31
2022-10-01T05:12:54.801Z,100790.78
2022-10-01T05:15:21.527Z,100794.09
2022-10-01T05:17:48.276Z,100791.31
2022-10-01T05:20:20.530Z,100793.03
2022-10-01T05:22:49.369Z,100802.28
2022-10-01T05:25:17.269Z,100790.03
2022-10-01T05:27:44.481Z,100780.75
2022-10-01T05:30:12.624Z,100803.69
2022-10-01T05:32:39.927Z,100809.72
2022-10-01T05:35:08.372Z,100816.84
2022-10-01T05:37:35.386Z,100814.22
2022-10-01T05:40:02.448Z,100822.00
2022-10-01T05:42:29.465Z,100816.53
2022-10-01T05:44:56.842Z,100819.34
2022-10-01T05:47:23.809Z,100836.63
2022-10-01T05:49:50.549Z,100834.00
2022-10-01T05:52:17.402Z,100842.75
2022-10-01T05:54:44.226Z,100840.16
2022-10-01T05:57:11.046Z,100845.38
2022-10-01T05:59:37.850Z,100847.09
2022-10-01T06:02:04.674Z,100858.06
2022-10-01T06:04:31.699Z,100859.72
2022-10-01T06:06:58.956Z,100855.63
2022-10-01T06:09:25.831Z,100863.38
2022-10-01T06:11:52.603Z,100865.00
2022-10-01T06:14:19.436Z,100868.63
2022-10-01T06:16:47.090Z,100866.00
2022-10-01T06:19:13.970Z,100875.47
2022-10-01T06:21:41.325Z,100873.19
2022-10-01T06:24:08.786Z,100884.91
2022-10-01T06:26:36.836Z,100882.25
2022-10-01T06:29:03.676Z,100890.03
2022-10-01T06:31:30.648Z,100901.06
2022-10-01T06:33:57.533Z,100898.56
2022-10-01T06:36:24.615Z,100903.38
2022-10-01T06:38:51.715Z,100910.06
2022-10-01T06:41:19.532Z,100915.06
2022-10-01T06:43:48.933Z,100915.66
2022-10-01T06:46:15.739Z,100915.50
2022-10-01T06:48:42.550Z,100912.03
2022-10-01T06:51:09.308Z,100899.59
2022-10-01T06:53:36.126Z,100907.06
2022-10-01T06:56:07.715Z,100903.00
2022-10-01T06:58:34.943Z,100901.78
2022-10-01T07:01:03.801Z,100894.38
2022-10-01T07:03:31.454Z,100900.38
2022-10-01T07:06:05.384Z,100894.91
2022-10-01T07:08:33.294Z,100888.06
2022-10-01T07:11:02.558Z,100886.53
2022-10-01T07:13:29.793Z,100895.31
2022-10-01T07:15:56.673Z,100887.78
2022-10-01T07:18:24.159Z,100876.63
2022-10-01T07:20:51.235Z,100850.28
2022-10-01T07:23:18.189Z,100841.66
2022-10-01T07:25:45.820Z,100832.53
2022-10-01T07:28:19.064Z,100807.53
2022-10-01T07:30:56.526Z,100807.13
2022-10-01T07:33:23.463Z,100812.88
2022-10-01T07:35:50.297Z,100792.72
2022-10-01T07:38:17.063Z,100775.78
2022-10-01T07:40:43.840Z,100781.41
2022-10-01T07:43:10.748Z,100769.53
2022-10-01T07:45:37.565Z,100766.59
2022-10-01T07:48:05.833Z,100750.41
2022-10-01T07:50:33.424Z,100744.34
2022-10-01T07:53:00.193Z,100736.09
2022-10-01T07:55:28.423Z,100725.84
2022-10-01T07:57:57.504Z,100727.84
2022-10-01T08:00:26.344Z,100723.06
2022-10-01T08:02:56.214Z,100703.38
2022-10-01T08:05:34.518Z,100656.09
2022-10-01T08:08:07.161Z,100575.53
2022-10-01T08:10:36.462Z,100485.78
2022-10-01T08:13:08.256Z,100386.00
2022-10-01T08:15:35.855Z,100303.25
2022-10-01T08:18:05.760Z,100236.81
2022-10-01T08:20:32.498Z,100192.41
2022-10-01T08:23:25.804Z,100136.09
2022-10-01T08:25:52.547Z,100105.50
2022-10-01T08:28:19.559Z,100086.50
2022-10-01T08:30:46.341Z,100092.16
2022-10-01T08:33:14.212Z,100093.00
2022-10-01T08:35:43.483Z,100083.19
2022-10-01T08:38:11.190Z,100073.94
2022-10-01T08:40:46.575Z,100074.81
2022-10-01T08:43:38.919Z,100073.88
2022-10-01T08:46:18.259Z,100075.38
2022-10-01T08:48:54.821Z,100073.00
2022-10-01T08:51:46.818Z,100073.41
2022-10-01T08:54:24.978Z,100072.00
2022-10-01T08:56:53.523Z,100080.31
2022-10-01T08:59:35.137Z,100079.41
2022-10-01T09:02:02.192Z,100074.09
2022-10-01T09:04:29.441Z,100082.38
2022-10-01T09:07:25.040Z,100080.69
2022-10-01T09:10:20.194Z,100072.34
2022-10-01T09:12:54.844Z,100067.06
2022-10-01T09:15:27.378Z,100081.38
2022-10-01T09:18:18.709Z,100089.97
2022-10-01T09:20:52.486Z,100093.22
2022-10-01T09:23:39.916Z,100106.09
2022-10-01T09:26:12.177Z,100117.88
2022-10-01T09:28:41.344Z,100143.13
2022-10-01T09:31:22.967Z,100177.53
2022-10-01T09:34:14.725Z,100206.28
2022-10-01T09:37:05.639Z,100218.28
2022-10-01T09:39:45.274Z,100238.31
2022-10-01T09:42:13.271Z,100245.34
2022-10-01T09:44:40.133Z,100237.03
2022-10-01T09:47:19.179Z,100220.06
2022-10-01T09:49:46.317Z,100189.81
2022-10-01T09:52:28.668Z,100175.47
2022-10-01T09:55:05.236Z,100167.94
2022-10-01T09:57:33.776Z,100152.94
2022-10-01T10:00:09.783Z,100158.75
2022-10-01T10:02:49.198Z,100167.34
2022-10-01T10:05:22.883Z,100181.44
2022-10-01T10:07:54.164Z,100198.81
2022-10-01T10:10:26.231Z,100207.56
2022-10-01T10:13:05.056Z,100240.78
2022-10-01T10:15:33.298Z,100264.19
2022-10-01T10:18:08.336Z,100283.66
2022-10-01T10:20:40.421Z,100303.19
2022-10-01T10:23:21.880Z,100333.06
2022-10-01T10:26:03.099Z,100343.69
2022-10-01T10:28:48.214Z,100341.94
2022-10-01T10:31:21.974Z,100347.09
2022-10-01T10:34:06.435Z,100338.59
2022-10-01T10:36:36.227Z,100322.56
2022-10-01T10:39:06.414Z,100316.75
2022-10-01T10:41:34.738Z,100298.16
2022-10-01T10:44:07.363Z,100301.81
2022-10-01T10:46:38.603Z,100314.34
2022-10-01T10:49:21.737Z,100317.00
2022-10-01T10:51:53.864Z,100328.56
2022-10-01T10:54:40.565Z,100343.28
2022-10-01T10:57:31.374Z,100362.84
2022-10-01T11:00:11.425Z,100371.41
2022-10-01T11:02:41.259Z,100393.75
2022-10-01T11:05:23.145Z,100412.75
2022-10-01T11:07:55.126Z,100429.16
2022-10-01T11:10:27.880Z,100457.09
2022-10-01T11:13:17.273Z,100480.72
2022-10-01T11:16:05.930Z,100498.69
2022-10-01T11:18:32.882Z,100524.22
2022-10-01T11:21:26.090Z,100539.47
2022-10-01T11:23:58.913Z,100540.88
2022-10-01T11:27:16.043Z,100572.34
2022-10-01T11:29:51.009Z,100598.84
2022-10-01T11:32:26.553Z,100598.53
2022-10-01T11:35:26.149Z,100586.34
2022-10-01T11:38:17.778Z,100514.50
2022-10-01T11:40:54.353Z,100427.38
2022-10-01T11:43:31.618Z,100373.50
2022-10-01T11:46:08.412Z,100331.97
2022-10-01T11:48:47.124Z,100326.19
2022-10-01T11:51:19.517Z,100316.44
2022-10-01T11:53:51.326Z,100324.88
2022-10-01T11:56:39.578Z,100315.78
2022-10-01T11:59:17.933Z,100320.78
2022-10-01T12:02:05.584Z,100326.22
2022-10-01T12:04:40.259Z,100323.25
2022-10-01T12:07:27.151Z,100334.16
2022-10-01T12:10:14.138Z,100335.13
2022-10-01T12:12:48.477Z,100323.84
2022-10-01T12:15:29.222Z,100340.16
2022-10-01T12:18:14.108Z,100345.72
2022-10-01T12:20:45.987Z,100348.84
2022-10-01T12:23:18.813Z,100345.03
2022-10-01T12:25:49.110Z,100356.63
2022-10-01T12:28:24.090Z,100363.28
2022-10-01T12:30:59.206Z,100369.97
2022-10-01T12:33:56.837Z,100383.72
2022-10-01T12:36:36.763Z,100403.69
2022-10-01T12:39:22.209Z,100391.22
2022-10-01T12:42:30.142Z,100400.69
2022-10-01T12:44:59.880Z,100393.53
2022-10-01T12:47:59.519Z,100375.53
2022-10-01T12:50:41.407Z,100373.38
2022-10-01T12:53:23.315Z,100376.44
2022-10-01T12:56:07.201Z,100378.63
2022-10-01T12:58:53.093Z,100380.88
2022-10-01T13:01:46.918Z,100379.38
2022-10-01T13:04:49.285Z,100377.72
2022-10-01T13:07:46.896Z,100382.06
2022-10-01T13:10:45.417Z,100387.25
2022-10-01T13:13:17.900Z,100385.25
2022-10-01T13:15:49.495Z,100395.00
2022-10-01T13:18:44.318Z,100390.41
2022-10-01T13:21:16.627Z,100405.78
2022-10-01T13:24:11.990Z,100408.91
2022-10-01T13:26:54.078Z,100417.69
2022-10-01T13:29:30.028Z,100424.41
2022-10-01T13:32:00.828Z,100432.13
2022-10-01T13:34:36.337Z,100435.44
2022-10-01T13:37:14.206Z,100459.75
2022-10-01T13:39:43.405Z,100470.44
2022-10-01T13:42:23.045Z,100491.59
2022-10-01T13:45:39.338Z,100504.59
2022-10-01T13:48:13.098Z,100526.56
2022-10-01T13:50:41.792Z,100559.31
2022-10-01T13:53:16.574Z,100586.22
2022-10-01T13:55:45.931Z,100600.34
2022-10-01T13:58:45.891Z,100623.22
2022-10-01T14:01:24.725Z,100652.94
2022-10-01T14:04:00.968Z,100682.50
2022-10-01T14:06:43.932Z,100657.25
2022-10-01T14:09:24.589Z,100582.72
2022-10-01T14:12:17.410Z,100550.06
2022-10-01T14:15:11.301Z,100537.78
2022-10-01T14:17:38.736Z,100524.81
2022-10-01T14:20:06.330Z,100539.47
2022-10-01T14:22:45.076Z,100528.88
2022-10-01T14:25:36.811Z,100538.66
2022-10-01T14:28:15.784Z,100546.03
2022-10-01T14:31:05.870Z,100551.66
2022-10-01T14:33:44.810Z,100557.88
2022-10-01T14:36:35.390Z,100574.13
2022-10-01T14:39:04.590Z,100602.66
2022-10-01T14:41:34.956Z,100608.78
2022-10-01T14:44:02.116Z,100611.69
2022-10-01T14:46:28.936Z,100618.88
2022-10-01T14:49:01.977Z,100645.06
2022-10-01T14:51:31.038Z,100650.75
2022-10-01T14:54:00.557Z,100664.88
2022-10-01T14:56:28.954Z,100679.16
2022-10-01T14:59:01.841Z,100714.69
2022-10-01T15:01:29.532Z,100734.41
2022-10-01T15:03:56.393Z,100758.00
2022-10-01T15:06:28.109Z,100771.00
2022-10-01T15:09:03.220Z,100747.34
2022-10-01T15:11:33.686Z,100757.16
2022-10-01T15:14:06.557Z,100769.50
2022-10-01T15:16:36.422Z,100775.81
2022-10-01T15:19:09.353Z,100727.31
2022-10-01T15:21:50.077Z,100704.81
2022-10-01T15:24:46.404Z,100711.72
2022-10-01T15:27:17.434Z,100725.38
2022-10-01T15:29:45.879Z,100725.34
2022-10-01T15:32:18.682Z,100717.56
2022-10-01T15:34:51.372Z,100709.81
2022-10-01T15:37:23.842Z,100724.59
2022-10-01T15:39:51.809Z,100718.91
2022-10-01T15:42:32.962Z,100726.34
2022-10-01T15:45:08.899Z,100739.19
2022-10-01T15:47:58.185Z,100763.53
2022-10-01T15:50:37.390Z,100772.41
2022-10-01T15:53:10.424Z,100790.22
2022-10-01T15:56:08.946Z,100810.75
2022-10-01T15:58:41.593Z,100831.50
2022-10-01T16:01:21.433Z,100839.16
2022-10-01T16:03:48.981Z,100859.81
2022-10-01T16:06:23.922Z,100870.06
2022-10-01T16:08:56.810Z,100878.13
2022-10-01T16:11:24.190Z,100883.88
2022-10-01T16:13:52.776Z,100892.13
2022-10-01T16:16:21.910Z,100906.31
2022-10-01T16:18:54.201Z,100905.38
2022-10-01T16:21:21.657Z,100898.09
2022-10-01T16:23:51.071Z,100904.06
2022-10-01T16:26:39.467Z,100906.31
2022-10-01T16:29:17.018Z,100923.41
2022-10-01T16:31:45.364Z,100913.16
2022-10-01T16:34:16.840Z,100925.81
2022-10-01T16:36:44.585Z,100922.94
2022-10-01T16:39:15.486Z,100933.91
2022-10-01T16:41:53.440Z,100937.31
2022-10-01T16:44:28.651Z,100937.88
2022-10-01T16:46:56.633Z,100948.72
2022-10-01T16:49:24.976Z,100959.03
2022-10-01T16:51:53.040Z,100967.22
2022-10-01T16:54:23.850Z,100979.47
2022-10-01T16:56:52.602Z,100990.47
2022-10-01T16:59:22.384Z,101008.88
2022-10-01T17:01:53.569Z,101022.41
2022-10-01T17:04:21.672Z,101030.50
2022-10-01T17:06:48.503Z,101041.41
2022-10-01T17:09:15.256Z,101048.72
2022-10-01T17:11:43.580Z,101070.34
2022-10-01T17:14:17.796Z,101079.38
2022-10-01T17:16:45.505Z,101088.34
2022-10-01T17:19:13.180Z,101104.44
2022-10-01T17:21:40.554Z,101111.84
2022-10-01T17:24:10.863Z,101119.09
2022-10-01T17:26:42.522Z,101123.66
2022-10-01T17:29:09.894Z,101127.41
2022-10-01T17:31:40.938Z,101135.31
2022-10-01T17:34:08.369Z,101143.56
2022-10-01T17:36:35.648Z,101160.25
2022-10-01T17:39:02.866Z,101165.00
2022-10-01T17:41:29.728Z,101173.78
2022-10-01T17:43:58.130Z,101201.88
2022-10-01T17:46:25.028Z,101205.06
2022-10-01T17:48:52.013Z,101214.47
2022-10-01T17:51:19.843Z,101215.41
2022-10-01T17:53:47.883Z,101229.59
2022-10-01T17:56:17.718Z,101241.69
2022-10-01T17:58:46.178Z,101258.25
2022-10-01T18:01:16.754Z,101304.66
2022-10-01T18:03:43.795Z,101306.00
2022-10-01T18:06:13.771Z,101322.09
2022-10-01T18:08:54.782Z,101305.47
2022-10-01T18:11:24.215Z,101300.19
2022-10-01T18:13:52.044Z,101308.75
2022-10-01T18:16:19.775Z,101318.81
2022-10-01T18:21:34.153Z,101347.41
2022-10-01T18:24:04.493Z,101361.16
2022-10-01T18:26:32.529Z,101375.78
2022-10-01T18:28:59.785Z,101398.06
2022-10-01T18:31:36.983Z,101425.09
2022-10-01T18:34:12.308Z,101431.31
2022-10-01T18:36:55.751Z,101452.00
2022-10-01T18:39:33.425Z,101472.56
2022-10-01T18:42:10.532Z,101491.47
2022-10-01T18:44:37.336Z,101514.25
2022-10-01T18:47:21.113Z,101522.34
2022-10-01T18:50:06.482Z,101521.63
2022-10-01T18:52:46.807Z,101541.25
2022-10-01T18:55:30.349Z,101537.25
2022-10-01T18:58:09.360Z,101550.72
2022-10-01T19:01:17.815Z,101556.38
2022-10-01T19:04:17.146Z,101564.31
2022-10-01T19:07:08.400Z,101569.94
2022-10-01T19:09:52.766Z,101585.00
2022-10-01T19:12:52.196Z,101597.50
2022-10-01T19:15:31.077Z,101608.81
2022-10-01T19:18:16.082Z,101619.34
2022-10-01T19:21:15.761Z,101643.63
2022-10-01T19:24:09.326Z,101651.47
2022-10-01T19:26:43.698Z,101678.56
2022-10-01T19:29:37.055Z,101699.59
2022-10-01T19:32:17.664Z,101718.56
2022-10-01T19:35:03.670Z,101741.84
2022-10-01T19:37:45.144Z,101787.28
2022-10-01T19:40:37.672Z,101782.16
2022-10-01T19:43:28.111Z,101789.88
2022-10-01T19:45:58.521Z,101806.53
2022-10-01T19:48:30.187Z,101804.72
2022-10-01T19:51:06.558Z,101796.16
2022-10-01T19:53:35.236Z,101811.31
2022-10-01T19:56:03.078Z,101808.78
2022-10-01T19:58:32.335Z,101807.03
2022-10-01T20:01:02.546Z,101813.16
2022-10-01T20:03:39.397Z,101809.66
2022-10-01T20:06:29.189Z,101824.28
2022-10-01T20:09:00.107Z,101825.09
2022-10-01T20:11:51.702Z,101837.28
2022-10-01T20:14:41.414Z,101832.94
2022-10-01T20:18:13.253Z,101829.66
2022-10-01T20:20:54.970Z,101827.09
2022-10-01T20:23:36.806Z,101831.50
2022-10-01T20:26:20.990Z,101832.53
2022-10-01T20:28:56.871Z,101845.19
2022-10-01T20:31:33.076Z,101843.16
2022-10-01T20:34:08.805Z,101836.09
2022-10-01T20:36:45.671Z,101824.69
2022-10-01T20:39:22.569Z,101808.97
2022-10-01T20:41:53.697Z,101802.75
2022-10-01T20:44:35.371Z,101792.22
2022-10-01T20:47:06.645Z,101781.78
2022-10-01T20:49:41.409Z,101772.31
2022-10-01T20:52:31.356Z,101757.41
2022-10-01T20:55:14.219Z,101755.91
2022-10-01T20:57:48.195Z,101755.16
2022-10-01T21:00:23.533Z,101743.78
2022-10-01T21:03:08.798Z,101742.81
2022-10-01T21:05:41.110Z,101736.63
2022-10-01T21:08:46.496Z,101743.56
2022-10-01T21:11:49.779Z,101760.88
2022-10-01T21:14:22.233Z,101782.72
2022-10-01T21:17:18.485Z,101757.09
2022-10-01T21:19:54.832Z,101770.13
2022-10-01T21:22:42.731Z,101764.97
2022-10-01T21:25:21.650Z,101761.53
2022-10-01T21:28:19.593Z,101760.75
2022-10-01T21:30:49.257Z,101768.75
2022-10-01T21:33:24.033Z,101774.13
2022-10-01T21:35:56.412Z,101761.97
2022-10-01T21:38:42.300Z,101766.59
2022-10-01T21:41:34.142Z,101781.69
2022-10-01T21:44:10.877Z,101789.59
2022-10-01T21:46:56.866Z,101792.38
2022-10-01T21:49:48.171Z,101801.03
2022-10-01T21:52:35.903Z,101803.69
2022-10-01T21:55:30.154Z,101818.59
2022-10-01T21:58:06.092Z,101844.00
2022-10-01T22:00:33.337Z,101868.41
2022-10-01T22:03:09.074Z,101889.41
2022-10-01T22:06:13.107Z,101882.34
2022-10-01T22:08:48.886Z,101904.19
2022-10-01T22:11:20.761Z,101908.53
2022-10-01T22:14:18.381Z,101918.28
2022-10-01T22:16:57.442Z,101927.97
2022-10-01T22:19:35.654Z,101926.16
2022-10-01T22:22:11.236Z,101930.69
2022-10-01T22:24:43.773Z,101926.25
2022-10-01T22:27:16.661Z,101921.81
2022-10-01T22:29:55.284Z,101928.91
2022-10-01T22:32:25.946Z,101937.75
2022-10-01T22:35:01.115Z,101953.63
2022-10-01T22:37:37.659Z,101946.72
2022-10-01T22:40:13.459Z,101962.56
2022-10-01T22:42:44.691Z,101967.69
2022-10-01T22:45:17.131Z,101957.31
2022-10-01T22:47:56.054Z,101966.13
2022-10-01T22:50:39.103Z,101960.97
2022-10-01T22:53:24.151Z,101970.72
2022-10-01T22:55:57.886Z,101970.00
2022-10-01T22:58:30.422Z,101970.19
2022-10-01T23:01:06.332Z,101979.97
2022-10-01T23:03:53.533Z,101994.00
2022-10-01T23:06:40.199Z,102000.97
2022-10-01T23:09:17.672Z,102009.53
2022-10-01T23:12:00.662Z,102015.59
2022-10-01T23:14:39.075Z,102019.03
2022-10-01T23:17:23.161Z,102031.41
2022-10-01T23:20:13.404Z,102024.47
2022-10-01T23:22:46.269Z,102014.72
2022-10-01T23:25:38.773Z,102004.16
2022-10-01T23:28:13.453Z,102002.34
2022-10-01T23:31:10.527Z,101989.38
2022-10-01T23:33:49.698Z,101979.06
2022-10-01T23:36:32.756Z,101957.34
2022-10-01T23:39:21.417Z,101960.84
2022-10-01T23:41:51.108Z,101964.31
2022-10-01T23:44:25.642Z,101963.41
2022-10-01T23:46:55.409Z,101961.03
2022-10-01T23:49:27.675Z,101951.44
2022-10-01T23:52:10.617Z,101955.91
2022-10-01T23:55:22.032Z,101967.31
2022-10-01T23:57:52.545Z,101967.44
